Time,TemperatureF,DewpointF,PressureIn,WindDirection,WindDirectionDegrees,WindSpeedMPH,WindSpeedGustMPH,Humidity,HourlyPrecipIn,Conditions,Clouds,dailyrainin,SoftwareType,DateUTC
2013-05-31 00:01:00,67.0,61.0,30.15,SE,135,6.0,8.0,80,0.00,,,0.00,Rainwise IP-100,2013-05-31 04:01:00,
2013-05-31 00:06:00,66.0,60.5,30.15,SE,135,1.0,6.0,83,0.00,,,0.00,Rainwise IP-100,2013-05-31 04:06:00,
2013-05-31 00:11:00,66.0,61.0,30.15,SSE,157,6.0,7.0,85,0.00,,,0.00,Rainwise IP-100,2013-05-31 04:11:00,
2013-05-31 00:16:00,66.0,60.5,30.15,SSE,157,6.0,7.0,83,0.00,,,0.00,Rainwise IP-100,2013-05-31 04:16:00,
2013-05-31 00:21:00,67.0,61.0,30.15,SSE,157,7.0,7.0,80,0.00,,,0.00,Rainwise IP-100,2013-05-31 04:21:00,
2013-05-31 00:26:00,68.0,60.0,30.15,SSE,157,4.0,8.0,76,0.00,,,0.00,Rainwise IP-100,2013-05-31 04:26:00,
2013-05-31 00:30:00,69.0,60.0,30.13,SW,225,2.0,8.0,73,0.00,,,0.00,Rainwise IP-100,2013-05-31 04:30:00,
2013-05-31 00:35:00,68.0,60.0,30.13,South,180,4.0,8.0,76,0.00,,,0.00,Rainwise IP-100,2013-05-31 04:35:00,
2013-05-31 00:40:00,67.0,61.0,30.14,South,180,6.0,7.0,80,0.00,,,0.00,Rainwise IP-100,2013-05-31 04:40:00,
2013-05-31 00:45:00,68.0,59.5,30.14,South,180,6.0,9.0,74,0.00,,,0.00,Rainwise IP-100,2013-05-31 04:45:00,
2013-05-31 00:50:00,69.0,60.0,30.13,South,180,7.0,7.0,73,0.00,,,0.00,Rainwise IP-100,2013-05-31 04:50:00,
2013-05-31 00:55:00,68.0,60.0,30.13,SSE,157,7.0,9.0,76,0.00,,,0.00,Rainwise IP-100,2013-05-31 04:55:00,
2013-05-31 01:00:00,69.0,59.5,30.13,South,180,7.0,9.0,72,0.00,,,0.00,Rainwise IP-100,2013-05-31 05:00:00,
2013-05-31 01:05:00,69.0,58.0,30.13,SE,135,7.0,10.0,69,0.00,,,0.00,Rainwise IP-100,2013-05-31 05:05:00,
2013-05-31 01:10:00,68.0,59.5,30.13,SE,135,7.0,10.0,74,0.00,,,0.00,Rainwise IP-100,2013-05-31 05:10:00,
2013-05-31 01:15:00,69.0,59.0,30.13,SE,135,6.0,9.0,70,0.00,,,0.00,Rainwise IP-100,2013-05-31 05:15:00,
2013-05-31 01:20:00,69.0,59.0,30.13,South,180,4.0,8.0,71,0.00,,,0.00,Rainwise IP-100,2013-05-31 05:20:00,
2013-05-31 01:25:00,67.0,60.0,30.13,NE,45,0.0,5.0,78,0.00,,,0.00,Rainwise IP-100,2013-05-31 05:25:00,
2013-05-31 01:30:00,65.0,59.5,30.14,NW,315,4.0,7.0,82,0.00,,,0.00,Rainwise IP-100,2013-05-31 05:30:00,
2013-05-31 01:35:00,65.0,60.5,30.14,SSW,202,7.0,7.0,86,0.00,,,0.00,Rainwise IP-100,2013-05-31 05:35:00,
2013-05-31 01:40:00,64.0,60.0,30.15,SE,135,6.0,7.0,86,0.00,,,0.00,Rainwise IP-100,2013-05-31 05:40:00,
2013-05-31 01:44:00,64.0,59.0,30.15,SSW,202,0.0,7.0,84,0.00,,,0.00,Rainwise IP-100,2013-05-31 05:44:00,
2013-05-31 01:49:00,63.0,60.0,30.16,WNW,292,7.0,7.0,89,0.00,,,0.00,Rainwise IP-100,2013-05-31 05:49:00,
2013-05-31 01:54:00,63.0,60.0,30.16,South,180,6.0,7.0,90,0.00,,,0.00,Rainwise IP-100,2013-05-31 05:54:00,
2013-05-31 01:59:00,67.0,59.5,30.14,SW,225,4.0,7.0,76,0.00,,,0.00,Rainwise IP-100,2013-05-31 05:59:00,
2013-05-31 02:04:00,67.0,60.0,30.14,SSE,157,7.0,8.0,77,0.00,,,0.00,Rainwise IP-100,2013-05-31 06:04:00,
2013-05-31 02:09:00,68.0,60.0,30.13,SSE,157,6.0,8.0,76,0.00,,,0.00,Rainwise IP-100,2013-05-31 06:09:00,
2013-05-31 02:14:00,68.0,59.0,30.13,SSE,157,5.0,7.0,73,0.00,,,0.00,Rainwise IP-100,2013-05-31 06:14:00,
2013-05-31 02:19:00,69.0,59.0,30.12,SE,135,7.0,9.0,71,0.00,,,0.00,Rainwise IP-100,2013-05-31 06:19:00,
2013-05-31 02:24:00,68.0,60.0,30.12,SSE,157,6.0,8.0,75,0.00,,,0.00,Rainwise IP-100,2013-05-31 06:24:00,
2013-05-31 02:29:00,68.0,59.5,30.13,SSE,157,7.0,8.0,74,0.00,,,0.00,Rainwise IP-100,2013-05-31 06:29:00,
2013-05-31 02:34:00,68.0,59.5,30.13,SSE,157,7.0,7.0,74,0.00,,,0.00,Rainwise IP-100,2013-05-31 06:34:00,
2013-05-31 02:39:00,69.0,59.5,30.13,South,180,6.0,7.0,72,0.00,,,0.00,Rainwise IP-100,2013-05-31 06:39:00,
2013-05-31 02:44:00,70.0,59.5,30.13,SE,135,8.0,10.0,69,0.00,,,0.00,Rainwise IP-100,2013-05-31 06:44:00,
2013-05-31 02:49:00,70.0,60.0,30.13,South,180,8.0,9.0,70,0.00,,,0.00,Rainwise IP-100,2013-05-31 06:49:00,
2013-05-31 02:54:00,70.0,60.0,30.13,South,180,7.0,9.0,70,0.00,,,0.00,Rainwise IP-100,2013-05-31 06:54:00,
2013-05-31 02:59:00,69.0,59.5,30.13,South,180,7.0,8.0,72,0.00,,,0.00,Rainwise IP-100,2013-05-31 06:59:00,
2013-05-31 03:04:00,68.0,60.0,30.13,SSE,157,8.0,8.0,75,0.00,,,0.00,Rainwise IP-100,2013-05-31 07:04:00,
2013-05-31 03:09:00,68.0,60.0,30.14,South,180,8.0,10.0,76,0.00,,,0.00,Rainwise IP-100,2013-05-31 07:09:00,
2013-05-31 03:14:00,68.0,60.0,30.14,South,180,6.0,8.0,76,0.00,,,0.00,Rainwise IP-100,2013-05-31 07:14:00,
2013-05-31 03:19:00,69.0,59.5,30.14,SSE,157,5.0,9.0,72,0.00,,,0.00,Rainwise IP-100,2013-05-31 07:19:00,
2013-05-31 03:24:00,70.0,59.0,30.14,SSE,157,7.0,8.0,68,0.00,,,0.00,Rainwise IP-100,2013-05-31 07:24:00,
2013-05-31 03:29:00,68.0,59.5,30.13,SSE,157,6.0,9.0,74,0.00,,,0.00,Rainwise IP-100,2013-05-31 07:29:00,
2013-05-31 03:34:00,68.0,59.5,30.13,South,180,6.0,10.0,74,0.00,,,0.00,Rainwise IP-100,2013-05-31 07:34:00,
2013-05-31 03:39:00,68.0,59.5,30.13,SSE,157,6.0,10.0,74,0.00,,,0.00,Rainwise IP-100,2013-05-31 07:39:00,
2013-05-31 03:44:00,69.0,60.0,30.13,South,180,6.0,8.0,73,0.00,,,0.00,Rainwise IP-100,2013-05-31 07:44:00,
2013-05-31 03:49:00,69.0,59.5,30.13,SSW,202,5.0,7.0,72,0.00,,,0.00,Rainwise IP-100,2013-05-31 07:49:00,
2013-05-31 03:54:00,69.0,59.5,30.13,South,180,7.0,7.0,72,0.00,,,0.00,Rainwise IP-100,2013-05-31 07:54:00,
2013-05-31 03:59:00,68.0,60.0,30.14,South,180,6.0,8.0,76,0.00,,,0.00,Rainwise IP-100,2013-05-31 07:59:00,
2013-05-31 04:04:00,67.0,60.0,30.14,SE,135,6.0,8.0,78,0.00,,,0.00,Rainwise IP-100,2013-05-31 08:04:00,
2013-05-31 04:09:00,68.0,60.0,30.14,SSE,157,9.0,9.0,75,0.00,,,0.00,Rainwise IP-100,2013-05-31 08:09:00,
2013-05-31 04:14:00,69.0,59.0,30.14,South,180,7.0,9.0,70,0.00,,,0.00,Rainwise IP-100,2013-05-31 08:14:00,
2013-05-31 04:19:00,69.0,59.0,30.13,SSW,202,7.0,9.0,71,0.00,,,0.00,Rainwise IP-100,2013-05-31 08:19:00,
2013-05-31 04:24:00,68.0,60.5,30.13,South,180,8.0,9.0,77,0.00,,,0.00,Rainwise IP-100,2013-05-31 08:24:00,
2013-05-31 04:29:00,68.0,60.0,30.14,SSE,157,9.0,9.0,75,0.00,,,0.00,Rainwise IP-100,2013-05-31 08:29:00,
2013-05-31 04:34:00,68.0,59.0,30.14,South,180,10.0,10.0,73,0.00,,,0.00,Rainwise IP-100,2013-05-31 08:34:00,
2013-05-31 04:39:00,68.0,60.0,30.14,SSE,157,7.0,12.0,75,0.00,,,0.00,Rainwise IP-100,2013-05-31 08:39:00,
2013-05-31 04:44:00,67.0,60.0,30.14,South,180,7.0,10.0,77,0.00,,,0.00,Rainwise IP-100,2013-05-31 08:44:00,
2013-05-31 04:49:00,67.0,60.0,30.15,South,180,10.0,10.0,78,0.00,,,0.00,Rainwise IP-100,2013-05-31 08:49:00,
2013-05-31 04:54:00,67.0,59.0,30.15,South,180,9.0,11.0,75,0.00,,,0.00,Rainwise IP-100,2013-05-31 08:54:00,
2013-05-31 04:59:00,67.0,59.5,30.15,South,180,9.0,10.0,76,0.00,,,0.00,Rainwise IP-100,2013-05-31 08:59:00,
2013-05-31 05:04:00,67.0,59.0,30.15,SSE,157,7.0,10.0,75,0.00,,,0.00,Rainwise IP-100,2013-05-31 09:04:00,
2013-05-31 05:09:00,67.0,60.0,30.15,South,180,4.0,10.0,77,0.00,,,0.00,Rainwise IP-100,2013-05-31 09:09:00,
2013-05-31 05:14:00,67.0,60.0,30.15,SSE,157,7.0,8.0,78,0.00,,,0.00,Rainwise IP-100,2013-05-31 09:14:00,
2013-05-31 05:19:00,67.0,60.0,30.15,South,180,5.0,9.0,77,0.00,,,0.00,Rainwise IP-100,2013-05-31 09:19:00,
2013-05-31 05:24:00,68.0,60.0,30.15,SSE,157,6.0,8.0,75,0.00,,,0.00,Rainwise IP-100,2013-05-31 09:24:00,
2013-05-31 05:29:00,68.0,60.0,30.14,South,180,9.0,9.0,75,0.00,,,0.00,Rainwise IP-100,2013-05-31 09:29:00,
2013-05-31 05:34:00,68.0,60.0,30.14,SSW,202,8.0,9.0,75,0.00,,,0.00,Rainwise IP-100,2013-05-31 09:34:00,
2013-05-31 05:39:00,68.0,60.0,30.14,South,180,6.0,11.0,75,0.00,,,0.00,Rainwise IP-100,2013-05-31 09:39:00,
2013-05-31 05:44:00,67.0,60.0,30.14,SSE,157,6.0,9.0,78,0.00,,,0.00,Rainwise IP-100,2013-05-31 09:44:00,
2013-05-31 05:49:00,67.0,60.0,30.15,SSE,157,9.0,9.0,78,0.00,,,0.00,Rainwise IP-100,2013-05-31 09:49:00,
2013-05-31 05:54:00,67.0,60.0,30.15,South,180,9.0,10.0,77,0.00,,,0.00,Rainwise IP-100,2013-05-31 09:54:00,
2013-05-31 05:59:00,66.0,60.0,30.15,South,180,9.0,10.0,81,0.00,,,0.00,Rainwise IP-100,2013-05-31 09:59:00,
2013-05-31 06:04:00,66.0,59.5,30.15,South,180,10.0,12.0,80,0.00,,,0.00,Rainwise IP-100,2013-05-31 10:04:00,
2013-05-31 06:09:00,67.0,60.0,30.15,South,180,6.0,11.0,78,0.00,,,0.00,Rainwise IP-100,2013-05-31 10:09:00,
2013-05-31 06:14:00,67.0,60.0,30.15,South,180,8.0,11.0,78,0.00,,,0.00,Rainwise IP-100,2013-05-31 10:14:00,
2013-05-31 06:19:00,68.0,60.0,30.15,South,180,9.0,10.0,75,0.00,,,0.00,Rainwise IP-100,2013-05-31 10:19:00,
2013-05-31 06:24:00,69.0,59.5,30.15,SSE,157,11.0,12.0,72,0.00,,,0.00,Rainwise IP-100,2013-05-31 10:24:00,
2013-05-31 06:29:00,69.0,60.5,30.15,SSE,157,9.0,11.0,74,0.00,,,0.00,Rainwise IP-100,2013-05-31 10:29:00,
2013-05-31 06:34:00,69.0,60.5,30.15,SSE,157,4.0,10.0,75,0.00,,,0.00,Rainwise IP-100,2013-05-31 10:34:00,
2013-05-31 06:39:00,68.0,60.0,30.15,South,180,6.0,8.0,76,0.00,,,0.00,Rainwise IP-100,2013-05-31 10:39:00,
2013-05-31 06:44:00,68.0,60.5,30.15,South,180,6.0,9.0,77,0.00,,,0.00,Rainwise IP-100,2013-05-31 10:44:00,
2013-05-31 06:49:00,68.0,60.5,30.16,South,180,8.0,10.0,77,0.00,,,0.00,Rainwise IP-100,2013-05-31 10:49:00,
2013-05-31 06:54:00,69.0,61.0,30.16,SW,225,6.0,10.0,76,0.00,,,0.00,Rainwise IP-100,2013-05-31 10:54:00,
2013-05-31 06:59:00,69.0,61.0,30.15,South,180,7.0,9.0,76,0.00,,,0.00,Rainwise IP-100,2013-05-31 10:59:00,
2013-05-31 07:04:00,69.0,60.5,30.15,SSW,202,7.0,10.0,75,0.00,,,0.00,Rainwise IP-100,2013-05-31 11:04:00,
2013-05-31 07:09:00,70.0,62.0,30.15,SSW,202,7.0,10.0,75,0.00,,,0.00,Rainwise IP-100,2013-05-31 11:09:00,
2013-05-31 07:14:00,70.0,62.0,30.15,South,180,7.0,10.0,75,0.00,,,0.00,Rainwise IP-100,2013-05-31 11:14:00,
2013-05-31 07:19:00,70.0,61.5,30.15,South,180,7.0,10.0,74,0.00,,,0.00,Rainwise IP-100,2013-05-31 11:19:00,
2013-05-31 07:24:00,71.0,61.5,30.15,SSW,202,8.0,11.0,72,0.00,,,0.00,Rainwise IP-100,2013-05-31 11:24:00,
2013-05-31 07:29:00,71.0,61.5,30.15,South,180,11.0,11.0,72,0.00,,,0.00,Rainwise IP-100,2013-05-31 11:29:00,
2013-05-31 07:34:00,72.0,61.5,30.15,South,180,7.0,12.0,70,0.00,,,0.00,Rainwise IP-100,2013-05-31 11:34:00,
2013-05-31 07:39:00,72.0,63.0,30.14,SSW,202,9.0,10.0,73,0.00,,,0.00,Rainwise IP-100,2013-05-31 11:39:00,
2013-05-31 07:44:00,72.0,62.5,30.14,South,180,6.0,11.0,72,0.00,,,0.00,Rainwise IP-100,2013-05-31 11:44:00,
2013-05-31 07:49:00,73.0,63.0,30.14,WSW,247,4.0,9.0,71,0.00,,,0.00,Rainwise IP-100,2013-05-31 11:49:00,
2013-05-31 07:54:00,73.0,62.5,30.14,SSE,157,12.0,12.0,69,0.00,,,0.00,Rainwise IP-100,2013-05-31 11:54:00,
2013-05-31 07:59:00,74.0,62.5,30.13,SSW,202,9.0,12.0,67,0.00,,,0.00,Rainwise IP-100,2013-05-31 11:59:00,
2013-05-31 08:04:00,74.0,62.5,30.13,SW,225,10.0,10.0,67,0.00,,,0.00,Rainwise IP-100,2013-05-31 12:04:00,
2013-05-31 08:09:00,74.0,62.0,30.13,SSE,157,7.0,12.0,66,0.00,,,0.00,Rainwise IP-100,2013-05-31 12:09:00,
2013-05-31 08:14:00,74.0,61.5,30.13,South,180,7.0,12.0,65,0.00,,,0.00,Rainwise IP-100,2013-05-31 12:14:00,
2013-05-31 08:19:00,75.0,63.5,30.12,South,180,7.0,15.0,67,0.00,,,0.00,Rainwise IP-100,2013-05-31 12:19:00,
2013-05-31 08:24:00,75.0,62.5,30.12,SSE,157,7.0,12.0,65,0.00,,,0.00,Rainwise IP-100,2013-05-31 12:24:00,
2013-05-31 08:29:00,75.0,64.0,30.13,SSE,157,3.0,12.0,68,0.00,,,0.00,Rainwise IP-100,2013-05-31 12:29:00,
2013-05-31 08:34:00,75.0,63.0,30.13,South,180,9.0,12.0,66,0.00,,,0.00,Rainwise IP-100,2013-05-31 12:34:00,
2013-05-31 08:39:00,75.0,61.5,30.12,SE,135,9.0,11.0,63,0.00,,,0.00,Rainwise IP-100,2013-05-31 12:39:00,
2013-05-31 08:44:00,76.0,63.5,30.12,SE,135,7.0,12.0,65,0.00,,,0.00,Rainwise IP-100,2013-05-31 12:44:00,
2013-05-31 08:49:00,76.0,63.5,30.12,SSW,202,5.0,10.0,65,0.00,,,0.00,Rainwise IP-100,2013-05-31 12:49:00,
2013-05-31 08:54:00,76.0,63.5,30.12,South,180,9.0,11.0,65,0.00,,,0.00,Rainwise IP-100,2013-05-31 12:54:00,
2013-05-31 08:59:00,76.0,63.5,30.12,SSW,202,7.0,14.0,65,0.00,,,0.00,Rainwise IP-100,2013-05-31 12:59:00,
2013-05-31 09:04:00,76.0,63.0,30.12,SSE,157,9.0,10.0,64,0.00,,,0.00,Rainwise IP-100,2013-05-31 13:04:00,
2013-05-31 09:09:00,77.0,64.0,30.12,SW,225,6.0,10.0,64,0.00,,,0.00,Rainwise IP-100,2013-05-31 13:09:00,
2013-05-31 09:14:00,77.0,65.0,30.12,South,180,7.0,12.0,66,0.00,,,0.00,Rainwise IP-100,2013-05-31 13:14:00,
2013-05-31 09:19:00,77.0,64.0,30.12,SW,225,3.0,10.0,64,0.00,,,0.00,Rainwise IP-100,2013-05-31 13:19:00,
2013-05-31 09:24:00,77.0,63.5,30.12,South,180,9.0,12.0,63,0.00,,,0.00,Rainwise IP-100,2013-05-31 13:24:00,
2013-05-31 09:29:00,77.0,64.0,30.12,SSW,202,12.0,12.0,64,0.00,,,0.00,Rainwise IP-100,2013-05-31 13:29:00,
2013-05-31 09:34:00,77.0,64.5,30.12,SSE,157,9.0,15.0,65,0.00,,,0.00,Rainwise IP-100,2013-05-31 13:34:00,
2013-05-31 09:39:00,77.0,63.5,30.11,SW,225,7.0,13.0,63,0.00,,,0.00,Rainwise IP-100,2013-05-31 13:39:00,
2013-05-31 09:44:00,77.0,64.0,30.11,South,180,6.0,12.0,64,0.00,,,0.00,Rainwise IP-100,2013-05-31 13:44:00,
2013-05-31 09:49:00,76.0,63.0,30.11,SSW,202,7.0,12.0,64,0.00,,,0.00,Rainwise IP-100,2013-05-31 13:49:00,
2013-05-31 09:54:00,77.0,64.0,30.11,South,180,6.0,10.0,64,0.00,,,0.00,Rainwise IP-100,2013-05-31 13:54:00,
2013-05-31 09:59:00,77.0,64.0,30.11,South,180,7.0,9.0,64,0.00,,,0.00,Rainwise IP-100,2013-05-31 13:59:00,
2013-05-31 10:04:00,77.0,64.5,30.11,SSE,157,6.0,11.0,65,0.00,,,0.00,Rainwise IP-100,2013-05-31 14:04:00,
2013-05-31 10:09:00,76.0,63.5,30.11,SSW,202,6.0,11.0,65,0.00,,,0.00,Rainwise IP-100,2013-05-31 14:09:00,
2013-05-31 10:14:00,76.0,63.0,30.11,SSW,202,6.0,10.0,64,0.00,,,0.00,Rainwise IP-100,2013-05-31 14:14:00,
2013-05-31 10:19:00,76.0,63.0,30.12,South,180,8.0,10.0,64,0.00,,,0.00,Rainwise IP-100,2013-05-31 14:19:00,
2013-05-31 10:24:00,76.0,63.0,30.12,South,180,6.0,9.0,64,0.00,,,0.00,Rainwise IP-100,2013-05-31 14:24:00,
2013-05-31 10:29:00,77.0,64.5,30.11,SW,225,4.0,8.0,65,0.00,,,0.00,Rainwise IP-100,2013-05-31 14:29:00,
2013-05-31 10:34:00,78.0,64.0,30.11,SW,225,3.0,9.0,62,0.00,,,0.00,Rainwise IP-100,2013-05-31 14:34:00,
2013-05-31 10:39:00,78.0,64.0,30.10,SW,225,8.0,10.0,62,0.00,,,0.00,Rainwise IP-100,2013-05-31 14:39:00,
2013-05-31 10:44:00,78.0,62.5,30.10,SW,225,6.0,10.0,59,0.00,,,0.00,Rainwise IP-100,2013-05-31 14:44:00,
2013-05-31 10:49:00,79.0,62.5,30.09,SW,225,6.0,11.0,57,0.00,,,0.00,Rainwise IP-100,2013-05-31 14:49:00,
2013-05-31 10:54:00,79.0,63.5,30.09,SW,225,2.0,9.0,59,0.00,,,0.00,Rainwise IP-100,2013-05-31 14:54:00,
2013-05-31 11:00:00,79.0,62.5,30.09,West,270,5.0,6.0,57,0.00,,,0.00,Rainwise IP-100,2013-05-31 15:00:00,
2013-05-31 11:05:00,79.0,63.5,30.09,SW,225,6.0,11.0,59,0.00,,,0.00,Rainwise IP-100,2013-05-31 15:05:00,
2013-05-31 11:10:00,78.0,62.0,30.09,SSW,202,5.0,8.0,58,0.00,,,0.00,Rainwise IP-100,2013-05-31 15:10:00,
2013-05-31 11:15:00,78.0,64.0,30.09,SW,225,5.0,7.0,62,0.00,,,0.00,Rainwise IP-100,2013-05-31 15:15:00,
2013-05-31 11:20:00,79.0,63.0,30.09,SW,225,5.0,8.0,58,0.00,,,0.00,Rainwise IP-100,2013-05-31 15:20:00,
2013-05-31 11:25:00,79.0,63.0,30.09,SW,225,2.0,6.0,58,0.00,,,0.00,Rainwise IP-100,2013-05-31 15:25:00,
2013-05-31 11:30:00,80.0,65.0,30.08,SE,135,0.0,6.0,60,0.00,,,0.00,Rainwise IP-100,2013-05-31 15:30:00,
2013-05-31 11:35:00,80.0,63.0,30.08,WSW,247,6.0,7.0,56,0.00,,,0.00,Rainwise IP-100,2013-05-31 15:35:00,
2013-05-31 11:40:00,80.0,63.0,30.08,SW,225,3.0,9.0,56,0.00,,,0.00,Rainwise IP-100,2013-05-31 15:40:00,
2013-05-31 11:45:00,81.0,61.5,30.08,West,270,5.0,8.0,51,0.00,,,0.00,Rainwise IP-100,2013-05-31 15:45:00,
2013-05-31 11:50:00,82.0,64.5,30.06,WSW,247,5.0,8.0,55,0.00,,,0.00,Rainwise IP-100,2013-05-31 15:50:00,
2013-05-31 11:55:00,82.0,60.5,30.06,West,270,7.0,12.0,48,0.00,,,0.00,Rainwise IP-100,2013-05-31 15:55:00,
2013-05-31 12:00:00,82.0,61.0,30.06,WSW,247,9.0,14.0,49,0.00,,,0.00,Rainwise IP-100,2013-05-31 16:00:00,
2013-05-31 12:05:00,82.0,61.5,30.06,SW,225,8.0,16.0,50,0.00,,,0.00,Rainwise IP-100,2013-05-31 16:05:00,
2013-05-31 12:10:00,83.0,62.0,30.05,SW,225,6.0,10.0,49,0.00,,,0.00,Rainwise IP-100,2013-05-31 16:10:00,
2013-05-31 12:15:00,82.0,60.0,30.05,West,270,7.0,14.0,47,0.00,,,0.00,Rainwise IP-100,2013-05-31 16:15:00,
2013-05-31 12:20:00,82.0,60.0,30.05,West,270,10.0,16.0,47,0.00,,,0.00,Rainwise IP-100,2013-05-31 16:20:00,
2013-05-31 12:25:00,83.0,61.5,30.05,WNW,292,7.0,13.0,48,0.00,,,0.00,Rainwise IP-100,2013-05-31 16:25:00,
2013-05-31 12:30:00,83.0,62.5,30.05,SW,225,5.0,13.0,50,0.00,,,0.00,Rainwise IP-100,2013-05-31 16:30:00,
2013-05-31 12:35:00,83.0,64.0,30.05,WSW,247,9.0,13.0,53,0.00,,,0.00,Rainwise IP-100,2013-05-31 16:35:00,
2013-05-31 12:40:00,83.0,65.0,30.04,WSW,247,7.0,10.0,54,0.00,,,0.00,Rainwise IP-100,2013-05-31 16:40:00,
2013-05-31 12:45:00,83.0,62.0,30.04,SW,225,10.0,11.0,49,0.00,,,0.00,Rainwise IP-100,2013-05-31 16:45:00,
2013-05-31 12:50:00,83.0,62.0,30.04,WSW,247,9.0,16.0,49,0.00,,,0.00,Rainwise IP-100,2013-05-31 16:50:00,
2013-05-31 12:55:00,83.0,63.0,30.04,SW,225,6.0,16.0,51,0.00,,,0.00,Rainwise IP-100,2013-05-31 16:55:00,
2013-05-31 13:00:00,83.0,62.0,30.04,South,180,10.0,10.0,49,0.00,,,0.00,Rainwise IP-100,2013-05-31 17:00:00,
2013-05-31 13:05:00,83.0,63.5,30.04,West,270,13.0,15.0,52,0.00,,,0.00,Rainwise IP-100,2013-05-31 17:05:00,
2013-05-31 13:10:00,83.0,62.0,30.04,SW,225,7.0,15.0,49,0.00,,,0.00,Rainwise IP-100,2013-05-31 17:10:00,
2013-05-31 13:15:00,83.0,65.0,30.04,SSW,202,8.0,16.0,54,0.00,,,0.00,Rainwise IP-100,2013-05-31 17:15:00,
2013-05-31 13:20:00,83.0,62.5,30.04,West,270,9.0,13.0,50,0.00,,,0.00,Rainwise IP-100,2013-05-31 17:20:00,
2013-05-31 13:25:00,83.0,62.5,30.04,SW,225,12.0,12.0,50,0.00,,,0.00,Rainwise IP-100,2013-05-31 17:25:00,
2013-05-31 13:30:00,83.0,62.0,30.04,WSW,247,7.0,15.0,49,0.00,,,0.00,Rainwise IP-100,2013-05-31 17:30:00,
2013-05-31 13:35:00,83.0,62.0,30.04,SW,225,12.0,12.0,49,0.00,,,0.00,Rainwise IP-100,2013-05-31 17:35:00,
2013-05-31 13:40:00,83.0,61.0,30.04,WSW,247,7.0,16.0,47,0.00,,,0.00,Rainwise IP-100,2013-05-31 17:40:00,
2013-05-31 13:45:00,84.0,63.0,30.04,SW,225,7.0,12.0,49,0.00,,,0.00,Rainwise IP-100,2013-05-31 17:45:00,
2013-05-31 13:50:00,84.0,61.5,30.02,SW,225,7.0,10.0,47,0.00,,,0.00,Rainwise IP-100,2013-05-31 17:50:00,
2013-05-31 13:55:00,84.0,62.5,30.02,SW,225,6.0,14.0,48,0.00,,,0.00,Rainwise IP-100,2013-05-31 17:55:00,
2013-05-31 14:00:00,83.0,61.5,30.02,SSW,202,11.0,13.0,48,0.00,,,0.00,Rainwise IP-100,2013-05-31 18:00:00,
2013-05-31 14:05:00,83.0,62.0,30.02,SW,225,7.0,17.0,49,0.00,,,0.00,Rainwise IP-100,2013-05-31 18:05:00,
2013-05-31 14:10:00,83.0,63.0,30.03,SSW,202,9.0,14.0,51,0.00,,,0.00,Rainwise IP-100,2013-05-31 18:10:00,
2013-05-31 14:15:00,83.0,63.0,30.03,SSW,202,7.0,13.0,51,0.00,,,0.00,Rainwise IP-100,2013-05-31 18:15:00,
2013-05-31 14:20:00,83.0,62.0,30.02,SW,225,5.0,13.0,49,0.00,,,0.00,Rainwise IP-100,2013-05-31 18:20:00,
2013-05-31 14:25:00,83.0,63.0,30.02,South,180,7.0,15.0,51,0.00,,,0.00,Rainwise IP-100,2013-05-31 18:25:00,
2013-05-31 14:30:00,83.0,61.5,30.02,SW,225,9.0,12.0,48,0.00,,,0.00,Rainwise IP-100,2013-05-31 18:30:00,
2013-05-31 14:35:00,83.0,62.0,30.02,West,270,7.0,14.0,49,0.00,,,0.00,Rainwise IP-100,2013-05-31 18:35:00,
2013-05-31 14:40:00,83.0,63.5,30.01,SW,225,4.0,13.0,52,0.00,,,0.00,Rainwise IP-100,2013-05-31 18:40:00,
2013-05-31 14:45:00,83.0,62.0,30.01,SW,225,10.0,16.0,49,0.00,,,0.00,Rainwise IP-100,2013-05-31 18:45:00,
2013-05-31 14:50:00,83.0,61.5,30.01,SW,225,10.0,13.0,48,0.00,,,0.00,Rainwise IP-100,2013-05-31 18:50:00,
2013-05-31 14:55:00,84.0,64.0,30.01,SW,225,9.0,12.0,51,0.00,,,0.00,Rainwise IP-100,2013-05-31 18:55:00,
2013-05-31 15:00:00,84.0,64.5,30.00,SW,225,10.0,16.0,52,0.00,,,0.00,Rainwise IP-100,2013-05-31 19:00:00,
2013-05-31 15:05:00,84.0,61.0,30.00,South,180,8.0,12.0,46,0.00,,,0.00,Rainwise IP-100,2013-05-31 19:05:00,
2013-05-31 15:10:00,85.0,62.5,30.00,West,270,9.0,14.0,47,0.00,,,0.00,Rainwise IP-100,2013-05-31 19:10:00,
2013-05-31 15:15:00,85.0,60.5,30.00,West,270,5.0,13.0,44,0.00,,,0.00,Rainwise IP-100,2013-05-31 19:15:00,
2013-05-31 15:20:00,85.0,61.0,30.00,West,270,15.0,20.0,45,0.00,,,0.00,Rainwise IP-100,2013-05-31 19:20:00,
2013-05-31 15:25:00,85.0,61.0,30.00,WSW,247,12.0,17.0,45,0.00,,,0.00,Rainwise IP-100,2013-05-31 19:25:00,
2013-05-31 15:30:00,85.0,61.0,29.99,SW,225,13.0,15.0,45,0.00,,,0.00,Rainwise IP-100,2013-05-31 19:30:00,
2013-05-31 15:35:00,85.0,60.5,29.99,SW,225,11.0,18.0,44,0.00,,,0.00,Rainwise IP-100,2013-05-31 19:35:00,
2013-05-31 15:40:00,85.0,63.0,30.00,West,270,6.0,16.0,48,0.00,,,0.00,Rainwise IP-100,2013-05-31 19:40:00,
2013-05-31 15:45:00,85.0,61.0,30.00,SW,225,15.0,19.0,45,0.00,,,0.00,Rainwise IP-100,2013-05-31 19:45:00,
2013-05-31 15:50:00,85.0,61.0,30.00,SW,225,10.0,15.0,45,0.00,,,0.00,Rainwise IP-100,2013-05-31 19:50:00,
2013-05-31 15:55:00,85.0,60.5,30.00,West,270,13.0,21.0,44,0.00,,,0.00,Rainwise IP-100,2013-05-31 19:55:00,
2013-05-31 16:00:00,85.0,60.5,29.99,SW,225,15.0,24.0,44,0.00,,,0.00,Rainwise IP-100,2013-05-31 20:00:00,
2013-05-31 16:05:00,85.0,63.0,29.99,South,180,5.0,16.0,48,0.00,,,0.00,Rainwise IP-100,2013-05-31 20:05:00,
2013-05-31 16:10:00,85.0,62.5,29.99,SW,225,12.0,19.0,47,0.00,,,0.00,Rainwise IP-100,2013-05-31 20:10:00,
2013-05-31 16:15:00,85.0,62.5,29.99,WSW,247,12.0,15.0,47,0.00,,,0.00,Rainwise IP-100,2013-05-31 20:15:00,
2013-05-31 16:20:00,85.0,61.0,29.98,SW,225,8.0,14.0,45,0.00,,,0.00,Rainwise IP-100,2013-05-31 20:20:00,
2013-05-31 16:25:00,85.0,62.5,29.98,South,180,17.0,17.0,47,0.00,,,0.00,Rainwise IP-100,2013-05-31 20:25:00,
2013-05-31 16:30:00,85.0,61.0,29.98,SW,225,12.0,17.0,45,0.00,,,0.00,Rainwise IP-100,2013-05-31 20:30:00,
2013-05-31 16:35:00,85.0,61.0,29.98,SW,225,5.0,17.0,45,0.00,,,0.00,Rainwise IP-100,2013-05-31 20:35:00,
2013-05-31 16:40:00,85.0,60.5,29.98,West,270,9.0,13.0,44,0.00,,,0.00,Rainwise IP-100,2013-05-31 20:40:00,
2013-05-31 16:45:00,85.0,61.0,29.98,West,270,14.0,20.0,45,0.00,,,0.00,Rainwise IP-100,2013-05-31 20:45:00,
2013-05-31 16:50:00,85.0,60.0,29.98,WSW,247,10.0,17.0,43,0.00,,,0.00,Rainwise IP-100,2013-05-31 20:50:00,
2013-05-31 16:55:00,85.0,60.0,29.98,West,270,10.0,21.0,43,0.00,,,0.00,Rainwise IP-100,2013-05-31 20:55:00,
2013-05-31 17:00:00,85.0,59.5,29.96,SW,225,9.0,19.0,42,0.00,,,0.00,Rainwise IP-100,2013-05-31 21:00:00,
2013-05-31 17:05:00,85.0,60.5,29.96,SW,225,10.0,16.0,44,0.00,,,0.00,Rainwise IP-100,2013-05-31 21:05:00,
2013-05-31 17:10:00,85.0,59.5,29.97,SW,225,6.0,20.0,42,0.00,,,0.00,Rainwise IP-100,2013-05-31 21:10:00,
2013-05-31 17:15:00,85.0,60.5,29.97,SW,225,14.0,20.0,44,0.00,,,0.00,Rainwise IP-100,2013-05-31 21:15:00,
2013-05-31 17:20:00,85.0,61.0,29.96,WNW,292,7.0,16.0,45,0.00,,,0.00,Rainwise IP-100,2013-05-31 21:20:00,
2013-05-31 17:25:00,85.0,60.0,29.96,West,270,11.0,19.0,43,0.00,,,0.00,Rainwise IP-100,2013-05-31 21:25:00,
2013-05-31 17:30:00,85.0,60.0,29.96,SW,225,9.0,17.0,43,0.00,,,0.00,Rainwise IP-100,2013-05-31 21:30:00,
2013-05-31 17:35:00,85.0,59.5,29.96,WSW,247,9.0,16.0,42,0.00,,,0.00,Rainwise IP-100,2013-05-31 21:35:00,
2013-05-31 17:40:00,85.0,60.0,29.95,SW,225,6.0,14.0,43,0.00,,,0.00,Rainwise IP-100,2013-05-31 21:40:00,
2013-05-31 17:45:00,85.0,59.5,29.95,SW,225,13.0,16.0,42,0.00,,,0.00,Rainwise IP-100,2013-05-31 21:45:00,
2013-05-31 17:50:00,85.0,61.0,29.96,SW,225,9.0,14.0,45,0.00,,,0.00,Rainwise IP-100,2013-05-31 21:50:00,
2013-05-31 17:55:00,85.0,60.5,29.96,SW,225,11.0,13.0,44,0.00,,,0.00,Rainwise IP-100,2013-05-31 21:55:00,
2013-05-31 18:00:00,85.0,60.5,29.95,SW,225,7.0,16.0,44,0.00,,,0.00,Rainwise IP-100,2013-05-31 22:00:00,
2013-05-31 18:05:00,85.0,61.0,29.95,West,270,6.0,14.0,45,0.00,,,0.00,Rainwise IP-100,2013-05-31 22:05:00,
2013-05-31 18:10:00,85.0,60.0,29.95,South,180,6.0,13.0,43,0.00,,,0.00,Rainwise IP-100,2013-05-31 22:10:00,
2013-05-31 18:15:00,85.0,59.5,29.95,SW,225,6.0,16.0,42,0.00,,,0.00,Rainwise IP-100,2013-05-31 22:15:00,
2013-05-31 18:20:00,84.0,60.0,29.95,SW,225,7.0,13.0,44,0.00,,,0.00,Rainwise IP-100,2013-05-31 22:20:00,
2013-05-31 18:25:00,84.0,57.5,29.95,SW,225,9.0,15.0,41,0.00,,,0.00,Rainwise IP-100,2013-05-31 22:25:00,
2013-05-31 18:30:00,84.0,59.0,29.95,SW,225,12.0,16.0,42,0.00,,,0.00,Rainwise IP-100,2013-05-31 22:30:00,
2013-05-31 18:35:00,84.0,57.5,29.95,SW,225,9.0,16.0,41,0.00,,,0.00,Rainwise IP-100,2013-05-31 22:35:00,
2013-05-31 18:40:00,84.0,57.5,29.95,SW,225,8.0,15.0,41,0.00,,,0.00,Rainwise IP-100,2013-05-31 22:40:00,
2013-05-31 18:45:00,84.0,59.0,29.95,SSW,202,6.0,13.0,42,0.00,,,0.00,Rainwise IP-100,2013-05-31 22:45:00,
2013-05-31 18:50:00,84.0,57.5,29.95,SW,225,11.0,13.0,41,0.00,,,0.00,Rainwise IP-100,2013-05-31 22:50:00,
2013-05-31 18:55:00,84.0,57.5,29.95,SW,225,9.0,14.0,41,0.00,,,0.00,Rainwise IP-100,2013-05-31 22:55:00,
2013-05-31 19:00:00,83.0,58.0,29.95,WSW,247,7.0,10.0,43,0.00,,,0.00,Rainwise IP-100,2013-05-31 23:00:00,
2013-05-31 19:05:00,83.0,57.0,29.95,WSW,247,10.0,13.0,41,0.00,,,0.00,Rainwise IP-100,2013-05-31 23:05:00,
2013-05-31 19:10:00,83.0,57.0,29.96,SSW,202,10.0,22.0,41,0.00,,,0.00,Rainwise IP-100,2013-05-31 23:10:00,
2013-05-31 19:15:00,83.0,58.0,29.96,WSW,247,3.0,20.0,43,0.00,,,0.00,Rainwise IP-100,2013-05-31 23:15:00,
2013-05-31 19:20:00,83.0,57.0,29.96,SW,225,10.0,14.0,41,0.00,,,0.00,Rainwise IP-100,2013-05-31 23:20:00,
2013-05-31 19:25:00,83.0,57.0,29.96,SW,225,8.0,12.0,41,0.00,,,0.00,Rainwise IP-100,2013-05-31 23:25:00,
2013-05-31 19:30:00,83.0,57.5,29.96,SW,225,6.0,12.0,42,0.00,,,0.00,Rainwise IP-100,2013-05-31 23:30:00,
2013-05-31 19:35:00,82.0,57.0,29.96,SSW,202,6.0,9.0,43,0.00,,,0.00,Rainwise IP-100,2013-05-31 23:35:00,
2013-05-31 19:40:00,82.0,57.0,29.97,SW,225,5.0,13.0,43,0.00,,,0.00,Rainwise IP-100,2013-05-31 23:40:00,
2013-05-31 19:45:00,81.0,57.0,29.97,SW,225,6.0,11.0,44,0.00,,,0.00,Rainwise IP-100,2013-05-31 23:45:00,
2013-05-31 19:50:00,81.0,57.5,29.96,SW,225,4.0,10.0,45,0.00,,,0.00,Rainwise IP-100,2013-05-31 23:50:00,
2013-05-31 19:55:00,81.0,57.5,29.96,SW,225,8.0,15.0,45,0.00,,,0.00,Rainwise IP-100,2013-05-31 23:55:00,
2013-05-31 20:00:00,81.0,58.0,29.97,SSW,202,9.0,11.0,46,0.00,,,0.00,Rainwise IP-100,2013-06-01 00:00:00,
2013-05-31 20:05:00,81.0,59.0,29.97,SW,225,6.0,10.0,47,0.00,,,0.00,Rainwise IP-100,2013-06-01 00:05:00,
2013-05-31 20:10:00,80.0,58.0,29.97,SW,225,7.0,12.0,48,0.00,,,0.00,Rainwise IP-100,2013-06-01 00:10:00,
2013-05-31 20:15:00,80.0,59.0,29.97,SSW,202,5.0,10.0,49,0.00,,,0.00,Rainwise IP-100,2013-06-01 00:15:00,
2013-05-31 20:20:00,80.0,60.0,29.98,SSW,202,7.0,9.0,50,0.00,,,0.00,Rainwise IP-100,2013-06-01 00:20:00,
2013-05-31 20:25:00,80.0,60.5,29.98,SW,225,4.0,10.0,51,0.00,,,0.00,Rainwise IP-100,2013-06-01 00:25:00,
2013-05-31 20:30:00,79.0,59.5,29.98,SSW,202,7.0,10.0,51,0.00,,,0.00,Rainwise IP-100,2013-06-01 00:30:00,
2013-05-31 20:35:00,79.0,59.5,29.98,SSW,202,7.0,10.0,51,0.00,,,0.00,Rainwise IP-100,2013-06-01 00:35:00,
2013-05-31 20:40:00,79.0,59.5,29.98,SW,225,5.0,10.0,51,0.00,,,0.00,Rainwise IP-100,2013-06-01 00:40:00,
2013-05-31 20:45:00,79.0,60.0,29.98,SW,225,6.0,10.0,52,0.00,,,0.00,Rainwise IP-100,2013-06-01 00:45:00,
2013-05-31 20:50:00,79.0,59.5,29.98,SSW,202,10.0,12.0,51,0.00,,,0.00,Rainwise IP-100,2013-06-01 00:50:00,
2013-05-31 20:55:00,79.0,60.0,29.98,SSW,202,6.0,13.0,52,0.00,,,0.00,Rainwise IP-100,2013-06-01 00:55:00,
2013-05-31 21:00:00,79.0,60.0,29.98,SSE,157,9.0,11.0,52,0.00,,,0.00,Rainwise IP-100,2013-06-01 01:00:00,
2013-05-31 21:05:00,78.0,60.5,29.98,SSE,157,9.0,9.0,55,0.00,,,0.00,Rainwise IP-100,2013-06-01 01:05:00,
2013-05-31 21:10:00,78.0,60.5,29.99,SSE,157,6.0,9.0,55,0.00,,,0.00,Rainwise IP-100,2013-06-01 01:10:00,
2013-05-31 21:15:00,78.0,60.5,29.99,SSE,157,6.0,10.0,55,0.00,,,0.00,Rainwise IP-100,2013-06-01 01:15:00,
2013-05-31 21:20:00,77.0,60.5,29.99,SE,135,6.0,8.0,56,0.00,,,0.00,Rainwise IP-100,2013-06-01 01:20:00,
2013-05-31 21:25:00,77.0,60.5,29.99,SSE,157,9.0,10.0,56,0.00,,,0.00,Rainwise IP-100,2013-06-01 01:25:00,
2013-05-31 21:30:00,77.0,60.0,30.00,SSE,157,8.0,10.0,55,0.00,,,0.00,Rainwise IP-100,2013-06-01 01:30:00,
2013-05-31 21:35:00,77.0,60.5,30.00,SSE,157,6.0,10.0,56,0.00,,,0.00,Rainwise IP-100,2013-06-01 01:35:00,
2013-05-31 21:40:00,77.0,60.5,30.00,SE,135,10.0,11.0,56,0.00,,,0.00,Rainwise IP-100,2013-06-01 01:40:00,
2013-05-31 21:45:00,77.0,61.5,30.00,SE,135,6.0,10.0,58,0.00,,,0.00,Rainwise IP-100,2013-06-01 01:45:00,
2013-05-31 21:50:00,76.0,60.0,30.01,South,180,6.0,8.0,58,0.00,,,0.00,Rainwise IP-100,2013-06-01 01:50:00,
2013-05-31 21:55:00,77.0,61.0,30.01,SSE,157,7.0,10.0,57,0.00,,,0.00,Rainwise IP-100,2013-06-01 01:55:00,
2013-05-31 22:00:00,76.0,60.0,30.01,SSE,157,7.0,10.0,58,0.00,,,0.00,Rainwise IP-100,2013-06-01 02:00:00,
2013-05-31 22:05:00,76.0,60.5,30.01,SE,135,7.0,9.0,59,0.00,,,0.00,Rainwise IP-100,2013-06-01 02:05:00,
2013-05-31 22:10:00,75.0,60.5,30.01,South,180,7.0,8.0,60,0.00,,,0.00,Rainwise IP-100,2013-06-01 02:10:00,
2013-05-31 22:15:00,76.0,60.5,30.01,SSE,157,6.0,9.0,59,0.00,,,0.00,Rainwise IP-100,2013-06-01 02:15:00,
2013-05-31 22:20:00,75.0,60.0,30.01,SE,135,8.0,9.0,59,0.00,,,0.00,Rainwise IP-100,2013-06-01 02:20:00,
2013-05-31 22:25:00,75.0,61.0,30.01,South,180,6.0,9.0,61,0.00,,,0.00,Rainwise IP-100,2013-06-01 02:25:00,
2013-05-31 22:30:00,74.0,61.0,30.02,South,180,7.0,8.0,64,0.00,,,0.00,Rainwise IP-100,2013-06-01 02:30:00,
2013-05-31 22:35:00,74.0,60.5,30.02,South,180,8.0,9.0,62,0.00,,,0.00,Rainwise IP-100,2013-06-01 02:35:00,
2013-05-31 22:40:00,75.0,59.5,30.01,South,180,9.0,12.0,58,0.00,,,0.00,Rainwise IP-100,2013-06-01 02:40:00,
2013-05-31 22:45:00,75.0,60.0,30.01,South,180,9.0,12.0,59,0.00,,,0.00,Rainwise IP-100,2013-06-01 02:45:00,
2013-05-31 22:50:00,74.0,61.0,30.02,SSE,157,9.0,11.0,64,0.00,,,0.00,Rainwise IP-100,2013-06-01 02:50:00,
2013-05-31 22:55:00,74.0,60.5,30.02,SSE,157,9.0,10.0,62,0.00,,,0.00,Rainwise IP-100,2013-06-01 02:55:00,
2013-05-31 23:00:00,74.0,61.0,30.01,South,180,8.0,9.0,64,0.00,,,0.00,Rainwise IP-100,2013-06-01 03:00:00,
2013-05-31 23:05:00,74.0,61.0,30.01,SSE,157,10.0,12.0,63,0.00,,,0.00,Rainwise IP-100,2013-06-01 03:05:00,
2013-05-31 23:10:00,74.0,61.0,30.01,South,180,10.0,13.0,64,0.00,,,0.00,Rainwise IP-100,2013-06-01 03:10:00,
2013-05-31 23:15:00,73.0,60.5,30.01,SSE,157,8.0,10.0,65,0.00,,,0.00,Rainwise IP-100,2013-06-01 03:15:00,
2013-05-31 23:20:00,74.0,61.0,30.01,SSE,157,7.0,10.0,63,0.00,,,0.00,Rainwise IP-100,2013-06-01 03:20:00,
2013-05-31 23:25:00,73.0,60.0,30.01,South,180,6.0,10.0,64,0.00,,,0.00,Rainwise IP-100,2013-06-01 03:25:00,
2013-05-31 23:30:00,73.0,60.5,30.02,SSW,202,6.0,9.0,65,0.00,,,0.00,Rainwise IP-100,2013-06-01 03:30:00,
2013-05-31 23:35:00,74.0,61.0,30.02,SSE,157,7.0,10.0,63,0.00,,,0.00,Rainwise IP-100,2013-06-01 03:35:00,
2013-05-31 23:40:00,74.0,61.0,30.01,South,180,9.0,10.0,64,0.00,,,0.00,Rainwise IP-100,2013-06-01 03:40:00,
2013-05-31 23:45:00,73.0,60.5,30.01,South,180,6.0,10.0,65,0.00,,,0.00,Rainwise IP-100,2013-06-01 03:45:00,
2013-05-31 23:50:00,74.0,61.0,30.01,South,180,6.0,9.0,63,0.00,,,0.00,Rainwise IP-100,2013-06-01 03:50:00,
2013-05-31 23:55:00,74.0,61.5,30.01,South,180,7.0,9.0,65,0.00,,,0.00,Rainwise IP-100,2013-06-01 03:55:00,